Time;durP1;ratioP1;P1;durP2;ratioP2;P2;SDS_P1;SDS_P2;PMS_P1;PMS_P2;Temp;Humidity;BMP_temperature;BMP_pressure;BME280_temperature;BME280_humidity;BME280_pressure;Samples;Min_cycle;Max_cycle;Signal;HPM_P1;HPM_P2
2021/09/05 00:00:13;;;;;;;21.63;14.95;;;18.40;99.90;;;18.45;71.51;101858.28;5115089;28;20070;-70
2021/09/05 00:02:43;;;;;;;;;;;18.40;99.90;;;18.55;71.91;101902.72;5115832;28;20047;-69
2021/09/05 00:05:12;;;;;;;22.85;15.13;;;18.30;99.90;;;18.57;71.85;101906.25;5115020;28;20011;-70
2021/09/05 00:07:41;;;;;;;24.55;15.43;;;18.30;99.90;;;18.60;72.05;101906.19;5115186;28;20050;-69
2021/09/05 00:10:10;;;;;;;20.58;14.07;;;18.30;99.90;;;18.61;71.78;101905.28;5115792;28;20097;-70
2021/09/05 00:12:40;;;;;;;25.00;14.55;;;18.30;99.90;;;18.55;71.82;101908.09;5115242;28;20548;-70
2021/09/05 00:15:11;;;;;;;24.83;15.18;;;18.30;99.90;;;18.59;71.83;101904.44;5115078;28;20048;-70
2021/09/05 00:17:41;;;;;;;21.17;14.00;;;18.30;99.90;;;18.54;72.12;101911.66;5115084;28;20154;-70
2021/09/05 00:20:12;;;;;;;23.52;14.50;;;18.20;99.90;;;18.45;72.05;101902.94;5114690;28;20031;-71
2021/09/05 00:22:41;;;;;;;22.70;14.27;;;18.20;99.90;;;18.43;71.96;101908.34;5115196;28;20067;-70
2021/09/05 00:25:11;;;;;;;23.13;14.70;;;18.20;99.90;;;18.40;72.20;101889.63;5114627;28;20123;-69
2021/09/05 00:27:40;;;;;;;;;;;18.10;99.90;;;18.27;72.14;101897.94;5097083;28;20055;-69
2021/09/05 00:30:09;;;;;;;22.90;15.32;;;18.10;99.90;;;18.27;72.71;101893.47;5114431;28;20349;-69
2021/09/05 00:32:38;;;;;;;21.60;13.73;;;18.00;99.90;;;17.63;72.55;101783.16;5113637;28;20063;-70
2021/09/05 00:35:10;;;;;;;20.77;14.25;;;18.00;99.90;;;18.31;72.60;101889.78;5114169;28;20401;-69
2021/09/05 00:37:39;;;;;;;24.00;15.32;;;18.00;99.90;;;18.30;72.62;101890.72;5114476;28;20047;-69
2021/09/05 00:40:10;;;;;;;21.92;14.52;;;18.00;99.90;;;18.28;72.66;101895.22;5114724;28;20067;-70
2021/09/05 00:42:38;;;;;;;22.85;14.77;;;18.00;99.90;;;18.34;72.55;101892.41;5096518;28;20055;-69
2021/09/05 00:45:08;;;;;;;22.85;14.50;;;18.10;99.90;;;18.34;72.51;101889.75;5095972;28;20506;-70
2021/09/05 00:47:37;;;;;;;23.48;14.43;;;18.00;99.90;;;18.33;72.39;101892.47;5114437;28;20104;-70
2021/09/05 00:50:07;;;;;;;25.52;14.95;;;18.00;99.90;;;18.27;72.41;101882.75;5095689;28;20051;-69
2021/09/05 00:52:37;;;;;;;20.95;14.05;;;18.00;99.90;;;18.14;72.54;101899.94;5095923;28;20169;-70
2021/09/05 00:55:07;;;;;;;;;;;17.90;99.90;;;18.17;72.68;101905.25;5096270;28;20097;-70
2021/09/05 00:57:42;;;;;;;21.17;13.80;;;17.90;99.90;;;18.17;72.61;101896.34;5114466;28;19920;-70
2021/09/05 01:00:11;;;;;;;23.33;14.60;;;17.90;99.90;;;18.19;72.50;101898.09;5113778;28;20104;-69
2021/09/05 01:02:43;;;;;;;24.83;14.63;;;17.90;99.90;;;18.17;72.44;101899.91;5114047;28;20044;-69
2021/09/05 01:05:12;;;;;;;20.95;14.07;;;17.90;99.90;;;18.17;72.49;101910.63;5095348;28;20063;-70
2021/09/05 01:07:42;;;;;;;23.45;13.40;;;17.90;99.90;;;18.15;72.45;101903.50;5113988;28;20081;-69
2021/09/05 01:10:14;;;;;;;20.02;14.05;;;17.90;99.90;;;17.37;72.32;101763.97;5113958;28;20126;-70
2021/09/05 01:12:44;;;;;;;23.13;14.15;;;17.90;99.90;;;18.18;72.54;101906.13;5095564;28;20100;-69
2021/09/05 01:15:12;;;;;;;27.23;15.35;;;17.90;99.90;;;18.12;72.45;101907.13;5095281;28;20051;-70
2021/09/05 01:17:42;;;;;;;20.52;14.15;;;17.80;99.90;;;18.14;72.21;101905.31;5095353;28;20035;-70
2021/09/05 01:20:29;;;;;;;21.73;13.82;;;17.90;99.90;;;18.16;72.45;101903.47;5113714;28;20058;-70
2021/09/05 01:23:17;;;;;;;22.65;13.23;;;17.90;99.90;;;18.17;72.32;101899.91;5114015;28;20124;-69
2021/09/05 01:26:06;;;;;;;20.60;13.70;;;17.90;99.90;;;18.18;72.27;101909.69;5113052;28;20058;-69
2021/09/05 01:29:07;;;;;;;20.13;13.18;;;17.90;99.90;;;18.18;72.32;101912.38;5094881;28;20075;-70
2021/09/05 01:32:05;;;;;;;20.33;13.60;;;17.90;99.90;;;18.17;72.29;101907.94;5057748;28;20061;-70
2021/09/05 01:34:52;;;;;;;21.63;14.10;;;17.90;99.90;;;18.20;72.09;101912.34;5113541;28;20556;-69
2021/09/05 01:37:49;;;;;;;20.08;14.02;;;17.80;99.90;;;18.24;71.96;101908.69;5022395;28;20062;-70
2021/09/05 01:40:36;;;;;;;21.65;13.38;;;17.90;99.90;;;18.23;71.96;101905.16;5113514;28;20127;-70
2021/09/05 01:43:25;;;;;;;24.55;14.15;;;17.90;99.90;;;18.22;71.88;101914.06;5113103;28;20558;-70
2021/09/05 01:46:21;;;;;;;22.27;14.18;;;17.90;99.90;;;18.18;71.85;101909.69;5112239;28;20052;-70
2021/09/05 01:49:08;;;;;;;20.67;13.55;;;17.90;99.90;;;18.16;71.70;101915.97;5113247;28;20047;-69
2021/09/05 01:51:55;;;;;;;23.88;13.52;;;17.80;99.90;;;18.16;71.64;101906.16;5113150;28;20089;-70
2021/09/05 01:54:49;;;;;;;24.65;14.00;;;17.90;99.90;;;18.20;71.76;101910.53;5112025;28;20047;-69
2021/09/05 01:57:56;;;;;;;20.65;13.88;;;17.90;99.90;;;18.19;71.67;101919.50;5083833;28;20063;-69
2021/09/05 02:00:43;;;;;;;20.70;14.27;;;17.90;99.90;;;18.17;71.80;101915.09;5112866;28;20054;-69
2021/09/05 02:03:31;;;;;;;24.25;15.07;;;17.90;99.90;;;18.18;71.71;101920.41;5094546;28;20039;-69
2021/09/05 02:06:06;;;;;;;19.67;13.27;;;17.80;99.90;;;17.94;71.35;101896.78;5094630;28;20055;-69
2021/09/05 02:08:55;;;;;;;21.35;14.50;;;17.80;99.90;;;18.16;71.48;101922.22;5111078;28;20050;-69
2021/09/05 02:11:41;;;;;;;29.88;14.75;;;17.80;99.90;;;18.12;71.76;101928.53;5112661;28;20475;-69
2021/09/05 02:14:36;;;;;;;24.40;14.07;;;17.80;99.90;;;18.01;71.82;101927.88;5108131;28;20062;-69
2021/09/05 02:17:25;;;;;;;21.80;14.65;;;17.80;99.90;;;18.00;71.90;101940.38;5098147;28;20160;-69
2021/09/05 02:20:20;;;;;;;21.92;14.02;;;17.70;99.90;;;18.04;71.99;101936.72;5112456;28;20492;-69
2021/09/05 02:23:08;;;;;;;23.13;14.57;;;17.80;99.90;;;18.06;72.04;101934.00;5094366;28;20115;-69
2021/09/05 02:25:52;;;;;;;23.23;14.63;;;17.80;99.90;;;17.96;71.88;101921.72;5094761;28;20071;-69
2021/09/05 02:28:56;;;;;;;22.80;14.80;;;17.70;99.90;;;18.01;71.81;101935.91;5112212;28;20051;-69
2021/09/05 02:31:43;;;;;;;21.00;14.60;;;17.70;99.90;;;17.98;71.96;101935.97;5112823;28;20078;-69
2021/09/05 02:34:43;;;;;;;20.38;14.45;;;17.70;99.90;;;17.95;72.06;101942.25;5112482;28;20055;-69
2021/09/05 02:37:42;;;;;;;22.50;14.25;;;17.70;99.90;;;17.81;72.08;101927.31;5102573;28;20465;-69
2021/09/05 02:40:28;;;;;;;26.13;15.02;;;17.60;99.90;;;17.91;71.99;101934.28;5094433;28;20047;-69
2021/09/05 02:43:11;;;;;;;20.58;14.30;;;17.60;99.90;;;17.91;72.22;101936.97;5094132;28;20143;-69
2021/09/05 02:46:15;;;;;;;25.45;15.65;;;17.60;99.90;;;17.90;72.17;101943.25;5092945;28;20044;-69
2021/09/05 02:49:01;;;;;;;23.05;15.00;;;17.60;99.90;;;17.92;71.89;101936.94;5094336;28;20052;-69
2021/09/05 02:51:50;;;;;;;27.10;15.73;;;17.60;99.90;;;17.81;72.10;101930.91;5110665;28;20047;-70
2021/09/05 02:54:41;;;;;;;23.67;14.93;;;17.50;99.90;;;17.70;72.38;101921.28;5112582;28;20073;-70
2021/09/05 02:57:41;;;;;;;25.48;15.77;;;17.50;99.90;;;17.73;72.20;101929.28;5115653;28;20488;-69
2021/09/05 03:00:45;;;;;;;24.88;15.60;;;17.50;99.90;;;17.67;72.67;101932.91;5093246;28;20493;-69
2021/09/05 03:03:32;;;;;;;21.50;15.13;;;17.40;99.90;;;17.69;72.37;101938.25;5116829;28;20487;-69
2021/09/05 03:06:20;;;;;;;28.30;15.55;;;17.40;99.90;;;17.64;72.74;101913.34;5098519;28;20389;-69
2021/09/05 03:09:07;;;;;;;24.50;15.23;;;17.40;99.90;;;17.69;72.52;101925.75;5116666;28;20070;-69
2021/09/05 03:12:15;;;;;;;29.95;16.05;;;17.40;99.90;;;17.68;72.55;101918.63;5090373;28;20039;-69
2021/09/05 03:15:04;;;;;;;23.20;15.65;;;17.40;99.90;;;17.66;72.46;101919.56;5116123;28;20055;-69
2021/09/05 03:17:59;;;;;;;24.35;16.00;;;17.40;99.90;;;17.65;72.49;101915.13;5116236;28;20112;-69
2021/09/05 03:20:47;;;;;;;21.40;15.32;;;17.40;99.90;;;17.66;72.51;101916.88;5115040;28;20090;-69
2021/09/05 03:23:48;;;;;;;25.38;15.30;;;17.30;99.90;;;17.47;72.28;101897.56;5097655;28;20362;-69
2021/09/05 03:26:40;;;;;;;28.17;15.07;;;17.30;99.90;;;17.63;72.49;101925.88;5067872;28;20067;-69
2021/09/05 03:29:25;;;;;;;25.17;15.32;;;17.30;99.90;;;17.56;72.49;101926.84;5116065;28;20044;-69
2021/09/05 03:32:31;;;;;;;25.23;15.73;;;17.30;99.90;;;17.56;72.49;101920.63;5099998;28;20051;-69
2021/09/05 03:35:20;;;;;;;26.95;15.48;;;17.20;99.90;;;17.57;72.42;101923.28;5115916;28;20040;-69
2021/09/05 03:38:27;;;;;;;25.65;15.48;;;17.30;99.90;;;17.52;72.44;101919.78;4993148;28;20074;-69
2021/09/05 03:41:27;;;;;;;25.75;16.55;;;17.20;99.90;;;17.50;72.67;101915.38;4961330;28;20050;-69
2021/09/05 03:44:14;;;;;;;26.20;16.35;;;17.20;99.90;;;17.44;72.57;101916.31;5095503;28;20181;-69
2021/09/05 03:47:10;;;;;;;29.08;17.88;;;17.20;99.90;;;17.44;72.72;101915.44;5111270;28;20075;-69
2021/09/05 03:50:11;;;;;;;27.55;16.70;;;17.20;99.90;;;17.40;72.79;101911.06;5080777;28;20496;-69
2021/09/05 03:52:45;;;;;;;27.42;16.95;;;17.20;99.90;;;17.34;72.69;101911.16;5115294;28;20044;-69
2021/09/05 03:55:18;;;;;;;24.98;16.17;;;17.10;99.90;;;17.28;72.94;101912.13;5097318;28;20109;-69
2021/09/05 03:57:47;;;;;;;24.08;16.63;;;17.00;99.90;;;17.31;73.15;101908.50;5096645;28;20051;-69
2021/09/05 04:00:16;;;;;;;25.73;16.38;;;17.00;99.90;;;17.29;73.21;101919.22;5096653;28;20457;-69
2021/09/05 04:02:48;;;;;;;30.42;16.33;;;17.00;99.90;;;17.25;72.95;101920.19;5096931;28;20050;-69
2021/09/05 04:05:18;;;;;;;23.08;16.92;;;17.00;99.90;;;17.22;73.01;101914.00;5114659;28;20676;-69
2021/09/05 04:08:01;;;;;;;32.22;17.08;;;17.00;99.90;;;17.21;73.09;101917.59;5114840;28;20043;-69
2021/09/05 04:10:30;;;;;;;26.80;16.40;;;16.90;99.90;;;17.26;73.06;101924.63;5115172;28;20048;-69
2021/09/05 04:12:58;;;;;;;30.10;16.30;;;17.00;99.90;;;17.31;72.91;101925.44;5114739;28;20493;-69
2021/09/05 04:15:27;;;;;;;29.60;16.65;;;17.00;99.90;;;17.31;72.61;101925.44;5114853;28;20047;-69
2021/09/05 04:17:58;;;;;;;23.42;16.30;;;17.00;99.90;;;17.33;72.55;101922.72;5096925;28;20043;-69
2021/09/05 04:20:26;;;;;;;25.20;15.65;;;17.10;99.90;;;16.95;72.55;101870.72;5114953;28;20039;-69
2021/09/05 04:22:55;;;;;;;28.38;17.48;;;17.00;99.90;;;17.26;72.62;101918.41;5114793;28;20039;-69
2021/09/05 04:25:23;;;;;;;31.10;17.20;;;16.90;99.90;;;17.11;73.00;101916.84;5114708;28;20067;-69
2021/09/05 04:27:51;;;;;;;27.77;16.10;;;16.90;99.90;;;17.11;72.98;101917.69;5114450;28;20113;-70
2021/09/05 04:30:20;;;;;;;30.35;16.55;;;16.80;99.90;;;17.07;73.31;101924.00;5114547;28;20125;-69
2021/09/05 04:32:48;;;;;;;23.20;16.17;;;16.80;99.90;;;17.13;73.11;101926.59;5096240;28;20058;-69
2021/09/05 04:35:18;;;;;;;26.88;17.33;;;16.80;99.90;;;17.15;73.01;101931.91;5114197;28;20051;-69
2021/09/05 04:37:46;;;;;;;23.17;15.37;;;16.90;99.90;;;17.00;73.01;101934.81;5114333;28;20036;-69
2021/09/05 04:40:15;;;;;;;24.80;16.95;;;16.80;99.90;;;17.01;73.05;101932.09;5114261;28;20044;-69
2021/09/05 04:42:43;;;;;;;29.48;17.02;;;16.80;99.90;;;17.06;73.10;101929.38;5114245;28;20134;-69
2021/09/05 04:45:12;;;;;;;28.58;17.05;;;16.70;99.90;;;17.11;73.02;101930.22;5114394;28;20143;-71
2021/09/05 04:47:41;;;;;;;28.50;17.52;;;16.80;99.90;;;17.12;72.72;101932.84;5113999;28;20142;-70
2021/09/05 04:50:10;;;;;;;25.02;17.00;;;16.80;99.90;;;16.98;72.82;101918.78;5114015;28;20423;-69
2021/09/05 04:52:40;;;;;;;27.13;17.13;;;16.80;99.90;;;17.12;73.00;101945.34;5114193;28;20090;-69
2021/09/05 04:55:09;;;;;;;28.73;17.42;;;16.80;99.90;;;17.09;72.77;101935.56;5114091;28;20066;-69
2021/09/05 04:57:37;;;;;;;26.88;17.42;;;16.80;99.90;;;17.15;72.73;101943.50;5114012;28;20086;-69
2021/09/05 05:00:07;;;;;;;25.33;16.83;;;16.80;99.90;;;17.08;72.54;101939.16;5113743;28;20035;-69
2021/09/05 05:02:36;;;;;;;24.50;16.42;;;16.80;99.90;;;17.11;72.67;101947.13;5114216;28;20044;-69
2021/09/05 05:05:06;;;;;;;26.13;17.17;;;16.80;99.90;;;16.99;72.74;101949.09;5113594;28;20044;-69
2021/09/05 05:07:35;;;;;;;26.20;17.15;;;16.80;99.90;;;17.04;73.13;101948.13;5113741;28;20409;-69
2021/09/05 05:10:06;;;;;;;25.98;16.77;;;16.80;99.90;;;17.07;72.84;101958.75;5113794;28;20105;-69
2021/09/05 05:12:35;;;;;;;27.40;17.17;;;16.80;99.90;;;16.81;72.65;101915.47;5113848;28;20047;-69
2021/09/05 05:15:03;;;;;;;28.88;16.95;;;16.80;99.90;;;17.13;72.70;101964.03;5113471;28;20126;-69
2021/09/05 05:17:33;;;;;;;29.20;17.02;;;16.80;99.90;;;17.03;72.51;101951.69;5113124;28;20043;-70
2021/09/05 05:20:01;;;;;;;24.15;16.92;;;16.80;99.90;;;17.19;72.35;101968.41;5113596;28;20373;-70
2021/09/05 05:22:30;;;;;;;24.45;16.92;;;16.90;99.90;;;17.19;72.28;101970.22;5113381;28;20108;-70
2021/09/05 05:24:58;;;;;;;26.13;17.17;;;16.90;99.90;;;17.28;72.21;101964.72;5113287;28;20046;-70
2021/09/05 05:27:28;;;;;;;29.80;18.33;;;16.90;99.90;;;17.28;71.82;101956.69;5113615;28;20050;-70
2021/09/05 05:29:56;;;;;;;24.77;17.23;;;17.00;99.90;;;17.35;71.83;101969.97;5095333;28;20516;-70
2021/09/05 05:32:25;;;;;;;25.95;16.80;;;17.10;99.90;;;17.46;71.82;101978.69;5113429;28;20285;-70
2021/09/05 05:34:53;;;;;;;24.23;15.85;;;17.10;99.90;;;17.51;71.56;101979.56;5113540;28;20067;-70
2021/09/05 05:37:22;;;;;;;23.85;16.33;;;17.20;99.90;;;17.54;71.34;101976.84;5113305;28;20066;-70
2021/09/05 05:39:50;;;;;;;24.45;16.58;;;17.30;99.90;;;17.55;71.09;101975.03;5113609;28;20051;-70
2021/09/05 05:42:18;;;;;;;23.88;16.50;;;17.30;99.90;;;17.09;70.84;101876.72;5113177;28;20079;-70
2021/09/05 05:44:48;;;;;;;28.30;16.83;;;17.40;99.90;;;17.62;70.91;101960.66;5113052;28;20454;-70
2021/09/05 05:47:17;;;;;;;24.80;17.05;;;17.50;99.90;;;17.82;70.56;101978.19;5113193;28;20063;-70
2021/09/05 05:49:46;;;;;;;21.67;16.30;;;17.60;99.90;;;17.91;70.11;101985.16;5113601;28;20483;-70
2021/09/05 05:52:15;;;;;;;23.73;16.67;;;17.60;99.90;;;18.00;70.23;101983.22;5113185;28;20051;-70
2021/09/05 05:54:44;;;;;;;24.23;17.63;;;17.70;99.90;;;18.20;69.66;102000.72;5112948;28;20098;-70
2021/09/05 05:57:12;;;;;;;23.40;15.35;;;17.90;99.90;;;18.37;69.00;101987.94;5113335;28;20038;-70
2021/09/05 05:59:40;;;;;;;23.65;15.68;;;18.10;99.90;;;18.60;68.25;101997.31;5113252;28;20051;-70
2021/09/05 06:02:10;;;;;;;24.65;16.38;;;18.30;99.90;;;18.77;67.24;101999.69;5113310;28;20042;-70
2021/09/05 06:04:39;;;;;;;23.33;14.68;;;18.40;99.90;;;18.99;66.65;101997.44;5094783;28;20047;-70
2021/09/05 06:07:07;;;;;;;23.77;15.25;;;18.70;99.90;;;19.19;65.80;102004.16;5113081;28;20063;-70
2021/09/05 06:09:35;;;;;;;23.92;14.80;;;18.80;99.90;;;19.34;65.53;101994.91;5112711;28;20055;-70
2021/09/05 06:12:05;;;;;;;22.77;15.32;;;19.00;99.90;;;19.52;64.72;102000.75;5113018;28;20071;-71
2021/09/05 06:14:34;;;;;;;23.80;16.38;;;19.10;99.90;;;19.68;64.35;102006.66;5113193;28;20097;-70
2021/09/05 06:17:03;;;;;;;26.10;16.10;;;19.30;99.90;;;19.71;63.79;102003.88;5112816;28;20090;-70
2021/09/05 06:19:33;;;;;;;24.08;16.05;;;19.30;99.90;;;19.69;63.27;102011.09;5112390;28;20059;-71
2021/09/05 06:22:01;;;;;;;24.35;16.00;;;19.40;99.90;;;19.54;63.67;102016.81;5112532;28;20544;-70
2021/09/05 06:24:30;;;;;;;26.70;15.80;;;19.20;99.90;;;19.55;63.47;102010.53;5112865;28;20131;-70
2021/09/05 06:26:58;;;;;;;24.40;15.43;;;19.20;99.90;;;19.57;63.33;102019.41;5112270;28;20043;-71
2021/09/05 06:29:27;;;;;;;21.88;16.00;;;19.30;99.90;;;19.70;63.18;102021.78;5113310;28;20074;-70
2021/09/05 06:31:55;;;;;;;28.77;15.00;;;19.40;99.90;;;19.92;63.07;102024.84;5116633;28;20047;-71
2021/09/05 06:34:23;;;;;;;20.98;15.77;;;19.60;99.90;;;19.98;62.63;102022.00;5116862;28;20067;-71
2021/09/05 06:36:53;;;;;;;22.35;15.40;;;19.60;99.90;;;19.90;62.95;102026.69;5116511;28;20425;-70
2021/09/05 06:39:21;;;;;;;25.70;15.80;;;19.60;99.90;;;20.11;62.97;102025.28;5117869;28;20154;-70
2021/09/05 06:41:50;;;;;;;21.73;14.35;;;19.70;99.90;;;20.18;61.82;102006.31;5098685;28;20285;-70
2021/09/05 06:44:18;;;;;;;23.23;15.43;;;20.00;99.90;;;20.36;61.54;102026.47;5116782;28;20118;-71
2021/09/05 06:46:46;;;;;;;24.02;14.80;;;20.10;99.90;;;20.40;61.98;102030.84;5116395;28;20048;-70
2021/09/05 06:49:15;;;;;;;23.40;15.63;;;20.10;99.90;;;20.69;61.67;102034.47;5116135;28;20092;-71
2021/09/05 06:51:43;;;;;;;23.73;14.95;;;20.30;99.90;;;20.69;60.61;102007.59;5116252;28;20044;-70
2021/09/05 06:54:13;;;;;;;26.95;15.05;;;20.50;99.90;;;21.04;60.42;102044.28;5116418;28;20126;-71
2021/09/05 06:56:42;;;;;;;25.33;15.70;;;20.70;99.90;;;21.08;59.61;102034.34;5116364;28;20369;-71
2021/09/05 06:59:10;;;;;;;22.23;14.07;;;20.80;99.90;;;20.88;60.91;102040.25;5116309;28;20484;-72
2021/09/05 07:01:39;;;;;;;24.52;15.02;;;20.60;99.90;;;21.01;60.00;102044.38;5116004;28;20127;-71
2021/09/05 07:04:08;;;;;;;24.17;15.07;;;20.70;99.90;;;21.24;60.09;102035.63;5116157;28;20557;-71
2021/09/05 07:06:36;;;;;;;23.10;14.63;;;20.80;99.90;;;21.52;59.17;102047.34;5116076;28;20043;-71
2021/09/05 07:09:05;;;;;;;22.58;14.18;;;21.10;99.90;;;21.43;59.90;102044.91;5115782;28;20066;-70
2021/09/05 07:11:34;;;;;;;22.58;14.90;;;21.10;99.90;;;21.58;58.93;102048.97;5116193;28;20124;-71
2021/09/05 07:14:03;;;;;;;19.40;13.07;;;21.30;99.90;;;21.33;59.75;102044.31;5115855;28;20089;-71
2021/09/05 07:16:31;;;;;;;21.13;13.75;;;21.10;99.90;;;21.39;59.30;102046.81;5115879;28;20334;-71
2021/09/05 07:19:00;;;;;;;23.23;14.23;;;21.10;99.90;;;21.43;58.55;102053.00;5116209;28;20040;-71
2021/09/05 07:21:28;;;;;;;22.08;14.43;;;21.20;99.90;;;21.22;58.91;102011.47;5115867;28;20044;-70
2021/09/05 07:23:56;;;;;;;21.13;15.60;;;21.10;99.90;;;20.89;59.88;102046.50;5115834;28;20050;-71
2021/09/05 07:26:25;;;;;;;21.25;14.27;;;20.80;99.90;;;20.95;60.74;102049.91;5115625;28;20497;-71
2021/09/05 07:28:55;;;;;;;21.88;15.05;;;20.60;99.90;;;20.14;61.90;102027.88;5116141;28;20071;-72
2021/09/05 07:31:23;;;;;;;21.98;15.35;;;20.10;99.90;;;20.32;62.82;102049.84;5115464;28;20439;-71
2021/09/05 07:33:51;;;;;;;22.50;15.60;;;19.90;99.90;;;20.01;63.53;102043.44;5115380;28;20039;-71
2021/09/05 07:36:20;;;;;;;21.98;15.55;;;19.70;99.90;;;19.46;64.66;102051.00;5115748;28;20096;-71
2021/09/05 07:38:48;;;;;;;22.20;15.95;;;19.20;99.90;;;20.03;64.90;102063.09;5115098;28;20063;-71
2021/09/05 07:41:17;;;;;;;25.85;15.98;;;19.50;99.90;;;20.45;63.62;102053.09;5114973;28;20044;-71
2021/09/05 07:43:45;;;;;;;27.90;15.05;;;19.90;99.90;;;20.96;63.12;102058.88;5115360;28;20122;-71
2021/09/05 07:46:15;;;;;;;20.05;14.85;;;20.50;99.90;;;21.35;61.16;102064.00;5115550;28;20096;-71
2021/09/05 07:48:43;;;;;;;22.52;15.85;;;21.00;99.90;;;21.61;60.79;102068.59;5115948;28;20492;-71
2021/09/05 07:51:12;;;;;;;22.77;14.63;;;21.20;99.90;;;21.93;59.18;102068.50;5115306;28;20126;-72
2021/09/05 07:53:40;;;;;;;22.65;14.52;;;21.60;99.90;;;21.81;58.76;102077.00;5115061;28;20101;-71
2021/09/05 07:56:09;;;;;;;22.20;14.27;;;21.70;99.90;;;22.23;59.39;102072.00;5115131;28;20053;-71
2021/09/05 07:58:37;;;;;;;24.15;13.65;;;21.90;99.90;;;22.37;58.12;102078.72;5115126;28;20449;-71
2021/09/05 08:01:06;;;;;;;21.20;14.40;;;22.10;99.90;;;22.57;58.31;102079.88;5114903;28;20252;-71
2021/09/05 08:03:39;;;;;;;22.77;14.40;;;22.30;99.90;;;22.63;57.40;102085.94;5114892;28;20073;-72
2021/09/05 08:06:09;;;;;;;21.92;14.30;;;22.40;99.90;;;21.21;61.41;102081.50;5114821;28;20050;-72
2021/09/05 08:08:37;;;;;;;21.00;14.80;;;21.20;99.90;;;21.08;61.74;102088.16;5114935;28;20067;-71
2021/09/05 08:11:06;;;;;;;21.75;15.02;;;20.80;99.90;;;20.00;64.04;102081.06;5114964;28;20541;-71
2021/09/05 08:13:35;;;;;;;19.02;14.43;;;20.00;99.90;;;19.87;66.06;102072.44;5114468;28;20147;-72
2021/09/05 08:16:06;;;;;;;24.38;15.80;;;19.50;99.90;;;20.52;63.24;102081.56;5114737;28;20516;-71
2021/09/05 08:18:39;;;;;;;23.65;14.48;;;20.10;99.90;;;20.49;64.98;102081.66;5114728;28;20039;-72
2021/09/05 08:21:09;;;;;;;20.95;14.43;;;20.00;99.90;;;21.10;62.01;102080.94;5114636;28;20051;-72
2021/09/05 08:23:39;;;;;;;24.85;14.82;;;20.60;99.90;;;21.57;61.61;102080.41;5114640;28;20056;-71
2021/09/05 08:26:10;;;;;;;23.08;15.95;;;21.10;99.90;;;20.97;61.98;102085.72;5114530;28;20043;-74
2021/09/05 08:28:38;;;;;;;;;;;20.90;99.90;;;20.95;62.78;102070.53;5115451;28;20435;-71
2021/09/05 08:31:07;;;;;;;23.40;15.90;;;20.70;99.90;;;21.36;62.33;102094.50;5114581;28;20330;-71
2021/09/05 08:33:37;;;;;;;25.70;15.55;;;21.00;99.90;;;21.12;62.10;102093.41;5114427;28;20068;-72
2021/09/05 08:36:06;;;;;;;21.17;14.88;;;20.90;99.90;;;21.50;63.04;102092.28;5095976;28;20078;-72
2021/09/05 08:38:35;;;;;;;22.25;14.68;;;21.00;99.90;;;22.07;61.01;102103.09;5113938;28;20065;-72
2021/09/05 08:41:04;;;;;;;20.10;13.93;;;21.60;99.90;;;22.24;59.04;102095.38;5114872;28;20043;-72
2021/09/05 08:43:33;;;;;;;21.88;15.40;;;22.00;99.90;;;21.54;59.70;102104.75;5114393;28;20049;-71
2021/09/05 08:46:02;;;;;;;26.00;15.23;;;21.60;99.90;;;21.30;60.32;102092.00;5114113;28;20043;-71
2021/09/05 08:48:31;;;;;;;20.63;14.05;;;21.10;99.90;;;22.03;60.52;102094.22;5095743;28;20055;-71
2021/09/05 08:51:01;;;;;;;22.65;13.20;;;21.50;99.90;;;22.69;58.59;102101.03;5114563;28;20043;-71
2021/09/05 08:53:30;;;;;;;20.77;13.87;;;22.20;99.90;;;22.38;59.00;102106.53;5113119;28;20378;-71
2021/09/05 08:55:58;;;;;;;16.48;12.57;;;22.10;99.90;;;22.45;59.26;102108.13;5114053;28;20067;-72
2021/09/05 08:58:27;;;;;;;19.50;14.23;;;22.10;99.90;;;21.47;59.93;102101.34;5114004;28;20046;-72
2021/09/05 09:00:55;;;;;;;16.52;13.38;;;21.60;99.90;;;22.14;58.65;102097.44;5114124;28;20048;-71
2021/09/05 09:03:25;;;;;;;21.27;13.27;;;21.80;99.90;;;22.38;57.35;102096.66;5113893;28;20130;-71
2021/09/05 09:05:57;;;;;;;23.40;14.05;;;22.10;99.90;;;22.36;56.79;102108.41;5114509;28;20093;-72
2021/09/05 09:08:26;;;;;;;21.10;14.30;;;22.20;99.90;;;20.89;60.29;102068.00;5114319;28;20489;-71
2021/09/05 09:10:58;;;;;;;22.35;13.90;;;21.00;99.90;;;21.46;59.90;102101.38;5113929;28;20096;-71
2021/09/05 09:13:30;;;;;;;22.83;14.45;;;21.20;99.90;;;21.32;61.03;102101.78;5114123;28;20043;-71
2021/09/05 09:16:05;;;;;;;18.27;13.65;;;21.10;99.90;;;20.13;62.19;101943.69;5113575;28;20403;-71
2021/09/05 09:18:35;;;;;;;20.20;13.55;;;20.80;99.90;;;22.08;61.34;102096.78;5113497;28;20056;-71
2021/09/05 09:21:07;;;;;;;22.43;13.67;;;21.50;99.90;;;22.15;58.58;102101.94;5113214;28;20067;-71
2021/09/05 09:23:40;;;;;;;25.35;15.50;;;21.90;99.90;;;22.32;60.06;102101.34;5113492;28;20437;-71
2021/09/05 09:26:10;;;;;;;18.65;13.20;;;21.90;99.90;;;22.10;58.65;102073.34;5113726;28;20039;-70
2021/09/05 09:28:40;;;;;;;18.23;12.57;;;22.00;99.90;;;22.85;57.72;102102.25;5113525;28;20462;-71
2021/09/05 09:31:16;;;;;;;30.90;14.43;;;22.40;99.90;;;23.12;56.41;102075.16;5113159;28;20399;-71
2021/09/05 09:33:48;;;;;;;24.83;13.45;;;22.80;99.90;;;23.51;55.67;102101.63;5113350;28;20349;-71
2021/09/05 09:36:18;;;;;;;21.25;12.52;;;23.20;99.90;;;22.92;57.33;102101.09;5113174;28;20040;-71
2021/09/05 09:38:55;;;;;;;;;;;22.80;99.90;;;23.79;55.43;102105.03;5113563;28;20055;-71
2021/09/05 09:41:29;;;;;;;19.20;12.23;;;23.30;99.90;;;24.20;53.27;102114.22;5113107;28;19931;-71
2021/09/05 09:44:00;;;;;;;21.15;12.55;;;23.80;99.90;;;24.39;52.36;102120.63;5094844;28;20055;-71
2021/09/05 09:46:31;;;;;;;16.02;11.70;;;24.10;99.90;;;24.58;52.43;102117.09;5113340;28;20044;-71
2021/09/05 09:49:02;;;;;;;16.40;11.90;;;24.30;99.90;;;24.49;52.50;102113.88;5113154;28;20101;-71
2021/09/05 09:51:31;;;;;;;16.55;11.43;;;24.30;99.90;;;24.84;51.85;102113.28;5113176;28;20054;-71
2021/09/05 09:54:01;;;;;;;18.52;12.50;;;24.50;99.90;;;24.89;51.64;102120.25;5112850;28;20131;-71
2021/09/05 09:56:30;;;;;;;17.33;11.07;;;24.60;99.90;;;24.84;52.44;102114.16;5113028;28;20104;-71
2021/09/05 09:59:02;;;;;;;17.35;11.88;;;24.50;99.90;;;24.79;50.83;102108.09;5112702;28;20141;-70
2021/09/05 10:01:33;;;;;;;18.15;11.32;;;24.70;99.90;;;25.06;51.59;102122.25;5112760;28;20485;-71
2021/09/05 10:04:05;;;;;;;18.20;11.57;;;24.80;99.90;;;24.88;51.83;102126.63;5112747;28;20047;-71
2021/09/05 10:06:34;;;;;;;20.67;12.30;;;24.60;99.90;;;25.39;50.07;102114.41;5112754;28;20055;-71
2021/09/05 10:09:07;;;;;;;16.60;11.57;;;25.00;99.90;;;25.40;49.35;102110.78;5112646;28;20093;-71
2021/09/05 10:11:37;;;;;;;21.48;11.75;;;25.10;99.90;;;25.48;48.37;102109.47;5112707;28;20051;-71
2021/09/05 10:14:06;;;;;;;17.75;12.00;;;25.30;99.90;;;25.69;49.34;102116.59;5094456;28;20409;-71
2021/09/05 10:16:34;;;;;;;17.23;11.15;;;25.40;99.90;;;25.80;48.21;102116.09;5112757;28;20123;-71
2021/09/05 10:19:07;;;;;;;14.50;10.52;;;25.50;99.90;;;25.96;48.26;102116.25;5094440;28;20081;-72
2021/09/05 10:21:36;;;;;;;18.58;11.55;;;25.70;99.90;;;26.08;47.06;102116.56;5112800;28;20047;-71
2021/09/05 10:24:15;;;;;;;17.75;12.43;;;25.80;99.90;;;25.80;46.36;102113.41;5112207;28;20134;-72
2021/09/05 10:26:59;;;;;;;18.77;12.15;;;25.80;99.90;;;23.69;50.81;102114.44;5112430;28;20067;-71
2021/09/05 10:29:28;;;;;;;19.85;12.07;;;24.00;99.90;;;22.67;54.50;102110.97;5112343;28;20544;-71